sensor_id;sensor_type;location;lat;lon;timestamp;P1;durP1;ratioP1;P2;durP2;ratioP2
72275;SDS011;61204;49.980;8.358;2022-12-07T00:01:46;16.35;;;9.35;;
72275;SDS011;61204;49.980;8.358;2022-12-07T00:04:13;20.65;;;10.32;;
72275;SDS011;61204;49.980;8.358;2022-12-07T00:06:44;22.40;;;10.45;;
72275;SDS011;61204;49.980;8.358;2022-12-07T00:09:15;20.10;;;10.38;;
72275;SDS011;61204;49.980;8.358;2022-12-07T00:11:43;28.35;;;10.15;;
72275;SDS011;61204;49.980;8.358;2022-12-07T00:14:13;26.25;;;10.30;;
72275;SDS011;61204;49.980;8.358;2022-12-07T00:16:41;21.55;;;9.75;;
72275;SDS011;61204;49.980;8.358;2022-12-07T00:19:08;17.77;;;9.93;;
72275;SDS011;61204;49.980;8.358;2022-12-07T00:21:37;24.52;;;11.10;;
72275;SDS011;61204;49.980;8.358;2022-12-07T00:24:04;24.17;;;10.15;;
72275;SDS011;61204;49.980;8.358;2022-12-07T00:26:32;21.45;;;9.95;;
72275;SDS011;61204;49.980;8.358;2022-12-07T00:29:05;28.38;;;10.88;;
72275;SDS011;61204;49.980;8.358;2022-12-07T00:31:42;22.23;;;9.75;;
72275;SDS011;61204;49.980;8.358;2022-12-07T00:34:11;16.35;;;9.10;;
72275;SDS011;61204;49.980;8.358;2022-12-07T00:36:41;13.82;;;8.50;;
72275;SDS011;61204;49.980;8.358;2022-12-07T00:39:07;11.68;;;8.23;;
72275;SDS011;61204;49.980;8.358;2022-12-07T00:41:33;10.95;;;8.00;;
72275;SDS011;61204;49.980;8.358;2022-12-07T00:43:59;11.43;;;8.05;;
72275;SDS011;61204;49.980;8.358;2022-12-07T00:46:25;13.20;;;8.32;;
72275;SDS011;61204;49.980;8.358;2022-12-07T00:48:52;13.50;;;8.30;;
72275;SDS011;61204;49.980;8.358;2022-12-07T00:51:19;11.05;;;7.45;;
72275;SDS011;61204;49.980;8.358;2022-12-07T00:53:49;13.57;;;8.10;;
72275;SDS011;61204;49.980;8.358;2022-12-07T00:56:20;13.90;;;8.07;;
72275;SDS011;61204;49.980;8.358;2022-12-07T00:58:54;12.15;;;7.30;;
72275;SDS011;61204;49.980;8.358;2022-12-07T01:01:24;12.60;;;7.70;;
72275;SDS011;61204;49.980;8.358;2022-12-07T01:03:54;14.25;;;7.47;;
72275;SDS011;61204;49.980;8.358;2022-12-07T01:06:20;12.35;;;8.25;;
72275;SDS011;61204;49.980;8.358;2022-12-07T01:08:50;10.70;;;7.10;;
72275;SDS011;61204;49.980;8.358;2022-12-07T01:11:18;13.55;;;8.63;;
72275;SDS011;61204;49.980;8.358;2022-12-07T01:13:52;11.63;;;7.63;;
72275;SDS011;61204;49.980;8.358;2022-12-07T01:16:21;11.07;;;7.40;;
72275;SDS011;61204;49.980;8.358;2022-12-07T01:18:51;13.05;;;7.78;;
72275;SDS011;61204;49.980;8.358;2022-12-07T01:21:20;10.23;;;7.40;;
72275;SDS011;61204;49.980;8.358;2022-12-07T01:23:54;12.47;;;7.30;;
72275;SDS011;61204;49.980;8.358;2022-12-07T01:26:23;11.77;;;7.78;;
72275;SDS011;61204;49.980;8.358;2022-12-07T01:28:51;12.73;;;7.70;;
72275;SDS011;61204;49.980;8.358;2022-12-07T01:31:20;15.55;;;7.90;;
72275;SDS011;61204;49.980;8.358;2022-12-07T01:33:51;9.32;;;7.13;;
72275;SDS011;61204;49.980;8.358;2022-12-07T01:36:22;10.70;;;7.15;;
72275;SDS011;61204;49.980;8.358;2022-12-07T01:38:59;11.45;;;7.43;;
72275;SDS011;61204;49.980;8.358;2022-12-07T01:41:32;9.83;;;6.60;;
72275;SDS011;61204;49.980;8.358;2022-12-07T01:46:53;10.75;;;7.68;;
72275;SDS011;61204;49.980;8.358;2022-12-07T01:54:53;11.10;;;6.78;;
72275;SDS011;61204;49.980;8.358;2022-12-07T01:57:31;11.65;;;6.88;;
72275;SDS011;61204;49.980;8.358;2022-12-07T02:00:04;9.65;;;7.20;;
72275;SDS011;61204;49.980;8.358;2022-12-07T02:02:34;9.45;;;7.18;;
72275;SDS011;61204;49.980;8.358;2022-12-07T02:05:10;14.27;;;7.72;;
72275;SDS011;61204;49.980;8.358;2022-12-07T02:07:37;10.30;;;7.18;;
72275;SDS011;61204;49.980;8.358;2022-12-07T02:10:14;12.25;;;7.93;;
72275;SDS011;61204;49.980;8.358;2022-12-07T02:12:49;11.18;;;6.70;;
72275;SDS011;61204;49.980;8.358;2022-12-07T02:15:47;10.80;;;6.82;;
72275;SDS011;61204;49.980;8.358;2022-12-07T02:25:17;10.45;;;6.45;;
72275;SDS011;61204;49.980;8.358;2022-12-07T02:28:46;11.40;;;7.60;;
72275;SDS011;61204;49.980;8.358;2022-12-07T02:31:06;10.57;;;7.05;;
72275;SDS011;61204;49.980;8.358;2022-12-07T02:33:50;10.25;;;7.15;;
72275;SDS011;61204;49.980;8.358;2022-12-07T02:36:45;11.27;;;7.47;;
72275;SDS011;61204;49.980;8.358;2022-12-07T02:39:29;13.20;;;7.85;;
72275;SDS011;61204;49.980;8.358;2022-12-07T02:42:13;12.48;;;7.53;;
72275;SDS011;61204;49.980;8.358;2022-12-07T02:44:50;10.60;;;7.65;;
72275;SDS011;61204;49.980;8.358;2022-12-07T02:47:17;11.25;;;7.20;;
72275;SDS011;61204;49.980;8.358;2022-12-07T02:49:49;12.65;;;7.25;;
72275;SDS011;61204;49.980;8.358;2022-12-07T02:52:17;13.23;;;7.57;;
72275;SDS011;61204;49.980;8.358;2022-12-07T02:54:42;12.50;;;7.97;;
72275;SDS011;61204;49.980;8.358;2022-12-07T03:00:25;10.33;;;7.27;;
72275;SDS011;61204;49.980;8.358;2022-12-07T03:02:53;14.77;;;8.07;;
72275;SDS011;61204;49.980;8.358;2022-12-07T03:11:09;11.27;;;7.40;;
72275;SDS011;61204;49.980;8.358;2022-12-07T03:14:03;10.18;;;6.68;;
72275;SDS011;61204;49.980;8.358;2022-12-07T03:17:06;10.88;;;6.90;;
72275;SDS011;61204;49.980;8.358;2022-12-07T03:19:41;11.10;;;7.00;;
72275;SDS011;61204;49.980;8.358;2022-12-07T03:22:12;11.40;;;7.40;;
72275;SDS011;61204;49.980;8.358;2022-12-07T03:25:04;11.80;;;7.53;;
72275;SDS011;61204;49.980;8.358;2022-12-07T03:30:18;14.40;;;8.43;;
72275;SDS011;61204;49.980;8.358;2022-12-07T03:32:53;11.85;;;6.78;;
72275;SDS011;61204;49.980;8.358;2022-12-07T03:35:40;10.93;;;7.00;;
72275;SDS011;61204;49.980;8.358;2022-12-07T03:38:45;8.75;;;6.72;;
72275;SDS011;61204;49.980;8.358;2022-12-07T03:41:47;11.70;;;7.03;;
72275;SDS011;61204;49.980;8.358;2022-12-07T03:44:14;8.75;;;6.60;;
72275;SDS011;61204;49.980;8.358;2022-12-07T03:55:20;8.93;;;6.00;;
72275;SDS011;61204;49.980;8.358;2022-12-07T03:57:58;9.57;;;6.20;;
72275;SDS011;61204;49.980;8.358;2022-12-07T04:00:31;10.82;;;7.00;;
72275;SDS011;61204;49.980;8.358;2022-12-07T04:02:57;9.88;;;6.10;;
72275;SDS011;61204;49.980;8.358;2022-12-07T04:05:23;10.80;;;6.35;;
72275;SDS011;61204;49.980;8.358;2022-12-07T04:07:49;10.18;;;5.90;;
72275;SDS011;61204;49.980;8.358;2022-12-07T04:10:15;11.00;;;6.15;;
72275;SDS011;61204;49.980;8.358;2022-12-07T04:12:41;9.90;;;6.60;;
72275;SDS011;61204;49.980;8.358;2022-12-07T04:15:06;9.45;;;6.00;;
72275;SDS011;61204;49.980;8.358;2022-12-07T04:17:33;9.60;;;6.15;;
72275;SDS011;61204;49.980;8.358;2022-12-07T04:19:59;10.63;;;6.68;;
72275;SDS011;61204;49.980;8.358;2022-12-07T04:22:25;9.52;;;6.53;;
72275;SDS011;61204;49.980;8.358;2022-12-07T04:24:50;9.45;;;5.70;;
72275;SDS011;61204;49.980;8.358;2022-12-07T04:27:16;10.45;;;5.93;;
72275;SDS011;61204;49.980;8.358;2022-12-07T04:29:41;9.18;;;6.07;;
72275;SDS011;61204;49.980;8.358;2022-12-07T04:32:07;10.52;;;6.53;;
72275;SDS011;61204;49.980;8.358;2022-12-07T04:34:32;10.48;;;6.30;;
72275;SDS011;61204;49.980;8.358;2022-12-07T04:36:58;8.60;;;6.07;;
72275;SDS011;61204;49.980;8.358;2022-12-07T04:39:26;9.80;;;5.90;;
72275;SDS011;61204;49.980;8.358;2022-12-07T04:41:57;9.85;;;5.80;;
72275;SDS011;61204;49.980;8.358;2022-12-07T04:44:25;9.98;;;6.45;;
72275;SDS011;61204;49.980;8.358;2022-12-07T04:46:53;10.30;;;6.68;;
72275;SDS011;61204;49.980;8.358;2022-12-07T04:49:20;10.32;;;6.35;;
72275;SDS011;61204;49.980;8.358;2022-12-07T04:51:46;11.02;;;6.05;;
72275;SDS011;61204;49.980;8.358;2022-12-07T04:54:13;8.85;;;6.03;;
72275;SDS011;61204;49.980;8.358;2022-12-07T04:56:41;10.20;;;5.72;;
72275;SDS011;61204;49.980;8.358;2022-12-07T04:59:09;8.10;;;6.20;;
72275;SDS011;61204;49.980;8.358;2022-12-07T05:01:37;9.15;;;5.72;;
72275;SDS011;61204;49.980;8.358;2022-12-07T05:04:05;9.32;;;6.00;;
72275;SDS011;61204;49.980;8.358;2022-12-07T05:06:31;8.63;;;5.88;;
72275;SDS011;61204;49.980;8.358;2022-12-07T05:08:57;9.75;;;6.38;;
72275;SDS011;61204;49.980;8.358;2022-12-07T05:11:23;10.88;;;6.60;;
72275;SDS011;61204;49.980;8.358;2022-12-07T05:14:13;9.90;;;6.43;;
72275;SDS011;61204;49.980;8.358;2022-12-07T05:16:46;9.02;;;5.63;;
72275;SDS011;61204;49.980;8.358;2022-12-07T05:19:16;11.07;;;7.45;;
72275;SDS011;61204;49.980;8.358;2022-12-07T05:21:43;17.75;;;9.13;;
72275;SDS011;61204;49.980;8.358;2022-12-07T05:24:10;13.30;;;7.68;;
72275;SDS011;61204;49.980;8.358;2022-12-07T05:26:40;11.13;;;8.23;;
72275;SDS011;61204;49.980;8.358;2022-12-07T05:29:06;16.88;;;7.85;;
72275;SDS011;61204;49.980;8.358;2022-12-07T05:31:32;15.00;;;8.48;;
72275;SDS011;61204;49.980;8.358;2022-12-07T05:33:59;13.57;;;8.30;;
72275;SDS011;61204;49.980;8.358;2022-12-07T05:36:24;12.65;;;8.60;;
72275;SDS011;61204;49.980;8.358;2022-12-07T05:38:50;16.15;;;8.23;;
72275;SDS011;61204;49.980;8.358;2022-12-07T05:41:17;12.43;;;7.63;;
72275;SDS011;61204;49.980;8.358;2022-12-07T05:44:02;14.32;;;8.35;;
72275;SDS011;61204;49.980;8.358;2022-12-07T05:46:29;14.55;;;8.52;;
72275;SDS011;61204;49.980;8.358;2022-12-07T05:48:55;14.50;;;8.48;;
72275;SDS011;61204;49.980;8.358;2022-12-07T05:51:21;15.52;;;8.38;;
72275;SDS011;61204;49.980;8.358;2022-12-07T05:53:47;14.40;;;8.80;;
72275;SDS011;61204;49.980;8.358;2022-12-07T05:56:13;13.98;;;8.57;;
72275;SDS011;61204;49.980;8.358;2022-12-07T05:58:39;12.60;;;7.95;;
72275;SDS011;61204;49.980;8.358;2022-12-07T06:01:23;12.38;;;8.25;;
72275;SDS011;61204;49.980;8.358;2022-12-07T06:03:49;10.35;;;7.60;;
72275;SDS011;61204;49.980;8.358;2022-12-07T06:06:14;16.33;;;7.97;;
72275;SDS011;61204;49.980;8.358;2022-12-07T06:08:40;10.70;;;7.72;;
72275;SDS011;61204;49.980;8.358;2022-12-07T06:11:06;9.38;;;7.50;;
72275;SDS011;61204;49.980;8.358;2022-12-07T06:13:50;12.68;;;7.70;;
72275;SDS011;61204;49.980;8.358;2022-12-07T06:16:15;10.90;;;7.53;;
72275;SDS011;61204;49.980;8.358;2022-12-07T06:18:41;12.77;;;8.68;;
72275;SDS011;61204;49.980;8.358;2022-12-07T06:21:06;10.65;;;8.32;;
72275;SDS011;61204;49.980;8.358;2022-12-07T06:23:32;12.63;;;8.00;;
72275;SDS011;61204;49.980;8.358;2022-12-07T06:25:57;12.27;;;7.30;;
72275;SDS011;61204;49.980;8.358;2022-12-07T06:28:23;14.27;;;8.43;;
72275;SDS011;61204;49.980;8.358;2022-12-07T06:30:56;12.30;;;8.52;;
72275;SDS011;61204;49.980;8.358;2022-12-07T06:33:24;13.25;;;8.20;;
72275;SDS011;61204;49.980;8.358;2022-12-07T06:35:50;11.57;;;7.78;;
72275;SDS011;61204;49.980;8.358;2022-12-07T06:38:16;10.43;;;7.97;;
72275;SDS011;61204;49.980;8.358;2022-12-07T06:40:41;13.35;;;7.70;;
72275;SDS011;61204;49.980;8.358;2022-12-07T06:43:07;13.20;;;8.23;;
72275;SDS011;61204;49.980;8.358;2022-12-07T06:45:33;13.40;;;7.60;;
72275;SDS011;61204;49.980;8.358;2022-12-07T06:47:58;14.68;;;8.15;;
72275;SDS011;61204;49.980;8.358;2022-12-07T06:50:24;12.23;;;8.15;;
72275;SDS011;61204;49.980;8.358;2022-12-07T06:52:50;14.32;;;8.60;;
72275;SDS011;61204;49.980;8.358;2022-12-07T06:55:17;14.15;;;9.05;;
72275;SDS011;61204;49.980;8.358;2022-12-07T06:57:43;13.45;;;9.07;;
72275;SDS011;61204;49.980;8.358;2022-12-07T07:00:09;13.13;;;7.90;;
72275;SDS011;61204;49.980;8.358;2022-12-07T07:02:36;12.40;;;8.40;;
72275;SDS011;61204;49.980;8.358;2022-12-07T07:05:02;12.52;;;8.10;;
72275;SDS011;61204;49.980;8.358;2022-12-07T07:07:28;12.30;;;8.18;;
72275;SDS011;61204;49.980;8.358;2022-12-07T07:09:54;13.75;;;7.88;;
72275;SDS011;61204;49.980;8.358;2022-12-07T07:12:19;11.38;;;7.97;;
72275;SDS011;61204;49.980;8.358;2022-12-07T07:14:45;14.18;;;8.40;;
72275;SDS011;61204;49.980;8.358;2022-12-07T07:17:11;15.48;;;8.45;;
72275;SDS011;61204;49.980;8.358;2022-12-07T07:19:36;13.60;;;8.23;;
72275;SDS011;61204;49.980;8.358;2022-12-07T07:22:02;11.60;;;8.57;;
72275;SDS011;61204;49.980;8.358;2022-12-07T07:24:28;13.02;;;8.35;;
72275;SDS011;61204;49.980;8.358;2022-12-07T07:26:54;12.93;;;7.85;;
72275;SDS011;61204;49.980;8.358;2022-12-07T07:29:20;11.93;;;7.43;;
72275;SDS011;61204;49.980;8.358;2022-12-07T07:31:46;14.55;;;8.70;;
72275;SDS011;61204;49.980;8.358;2022-12-07T07:34:11;11.60;;;8.35;;
72275;SDS011;61204;49.980;8.358;2022-12-07T07:36:37;12.13;;;8.38;;
72275;SDS011;61204;49.980;8.358;2022-12-07T07:39:03;13.25;;;8.75;;
72275;SDS011;61204;49.980;8.358;2022-12-07T07:41:29;10.35;;;7.65;;
72275;SDS011;61204;49.980;8.358;2022-12-07T07:43:56;10.82;;;7.00;;
72275;SDS011;61204;49.980;8.358;2022-12-07T07:46:22;10.30;;;7.70;;
72275;SDS011;61204;49.980;8.358;2022-12-07T07:48:47;12.77;;;8.27;;
72275;SDS011;61204;49.980;8.358;2022-12-07T07:51:13;10.93;;;8.07;;
72275;SDS011;61204;49.980;8.358;2022-12-07T07:53:39;10.73;;;6.95;;
72275;SDS011;61204;49.980;8.358;2022-12-07T07:56:04;11.50;;;7.85;;
72275;SDS011;61204;49.980;8.358;2022-12-07T07:58:30;12.23;;;7.40;;
72275;SDS011;61204;49.980;8.358;2022-12-07T08:00:55;9.02;;;6.63;;
72275;SDS011;61204;49.980;8.358;2022-12-07T08:03:21;9.40;;;6.85;;
72275;SDS011;61204;49.980;8.358;2022-12-07T08:05:47;8.85;;;6.43;;
72275;SDS011;61204;49.980;8.358;2022-12-07T08:08:12;10.18;;;6.32;;
72275;SDS011;61204;49.980;8.358;2022-12-07T08:10:38;9.70;;;6.82;;
72275;SDS011;61204;49.980;8.358;2022-12-07T08:13:04;9.00;;;6.65;;
72275;SDS011;61204;49.980;8.358;2022-12-07T08:15:36;9.95;;;7.28;;
72275;SDS011;61204;49.980;8.358;2022-12-07T08:18:04;14.13;;;7.22;;
72275;SDS011;61204;49.980;8.358;2022-12-07T08:20:31;9.65;;;6.90;;
72275;SDS011;61204;49.980;8.358;2022-12-07T08:22:59;11.98;;;7.82;;
72275;SDS011;61204;49.980;8.358;2022-12-07T08:25:25;8.90;;;6.82;;
72275;SDS011;61204;49.980;8.358;2022-12-07T08:27:52;10.88;;;7.43;;
72275;SDS011;61204;49.980;8.358;2022-12-07T08:30:19;11.70;;;7.35;;
72275;SDS011;61204;49.980;8.358;2022-12-07T08:32:46;13.73;;;7.10;;
72275;SDS011;61204;49.980;8.358;2022-12-07T08:35:13;10.10;;;6.60;;
72275;SDS011;61204;49.980;8.358;2022-12-07T08:37:40;12.57;;;7.60;;
72275;SDS011;61204;49.980;8.358;2022-12-07T08:40:07;18.25;;;7.78;;
72275;SDS011;61204;49.980;8.358;2022-12-07T08:42:35;16.52;;;7.65;;
72275;SDS011;61204;49.980;8.358;2022-12-07T08:45:14;17.63;;;7.70;;
72275;SDS011;61204;49.980;8.358;2022-12-07T08:47:43;17.65;;;8.05;;
72275;SDS011;61204;49.980;8.358;2022-12-07T08:50:29;16.75;;;8.48;;
72275;SDS011;61204;49.980;8.358;2022-12-07T08:52:57;23.88;;;8.60;;
72275;SDS011;61204;49.980;8.358;2022-12-07T08:55:26;20.42;;;8.73;;
72275;SDS011;61204;49.980;8.358;2022-12-07T08:57:54;19.63;;;7.95;;
72275;SDS011;61204;49.980;8.358;2022-12-07T09:00:21;14.93;;;7.93;;
72275;SDS011;61204;49.980;8.358;2022-12-07T09:02:47;13.68;;;7.80;;
72275;SDS011;61204;49.980;8.358;2022-12-07T09:05:13;19.67;;;7.90;;
72275;SDS011;61204;49.980;8.358;2022-12-07T09:07:42;14.07;;;7.65;;
72275;SDS011;61204;49.980;8.358;2022-12-07T09:10:14;13.23;;;7.40;;
72275;SDS011;61204;49.980;8.358;2022-12-07T09:12:40;9.38;;;6.30;;
72275;SDS011;61204;49.980;8.358;2022-12-07T09:15:06;9.82;;;6.50;;
72275;SDS011;61204;49.980;8.358;2022-12-07T09:17:33;8.38;;;6.10;;
72275;SDS011;61204;49.980;8.358;2022-12-07T09:20:00;7.85;;;5.30;;
72275;SDS011;61204;49.980;8.358;2022-12-07T09:22:30;7.75;;;5.40;;
72275;SDS011;61204;49.980;8.358;2022-12-07T09:24:59;6.93;;;4.80;;
72275;SDS011;61204;49.980;8.358;2022-12-07T09:27:27;8.45;;;5.05;;
72275;SDS011;61204;49.980;8.358;2022-12-07T09:29:53;7.30;;;5.70;;
72275;SDS011;61204;49.980;8.358;2022-12-07T09:32:18;8.68;;;5.55;;
72275;SDS011;61204;49.980;8.358;2022-12-07T09:34:45;8.20;;;5.78;;
72275;SDS011;61204;49.980;8.358;2022-12-07T09:37:10;8.68;;;6.22;;
72275;SDS011;61204;49.980;8.358;2022-12-07T09:39:39;10.00;;;5.80;;
72275;SDS011;61204;49.980;8.358;2022-12-07T09:42:06;13.23;;;6.40;;
72275;SDS011;61204;49.980;8.358;2022-12-07T09:44:34;8.82;;;6.30;;
72275;SDS011;61204;49.980;8.358;2022-12-07T09:47:00;9.13;;;6.45;;
72275;SDS011;61204;49.980;8.358;2022-12-07T09:49:28;9.48;;;6.05;;
72275;SDS011;61204;49.980;8.358;2022-12-07T09:52:00;7.72;;;5.28;;
72275;SDS011;61204;49.980;8.358;2022-12-07T09:54:49;8.13;;;5.13;;
72275;SDS011;61204;49.980;8.358;2022-12-07T09:57:17;8.45;;;5.53;;
72275;SDS011;61204;49.980;8.358;2022-12-07T09:59:54;6.78;;;4.13;;
72275;SDS011;61204;49.980;8.358;2022-12-07T10:05:09;6.47;;;4.05;;
72275;SDS011;61204;49.980;8.358;2022-12-07T10:07:43;6.55;;;4.13;;
72275;SDS011;61204;49.980;8.358;2022-12-07T10:10:20;7.75;;;4.35;;
72275;SDS011;61204;49.980;8.358;2022-12-07T10:13:13;7.83;;;4.07;;
72275;SDS011;61204;49.980;8.358;2022-12-07T10:15:53;8.73;;;4.35;;
72275;SDS011;61204;49.980;8.358;2022-12-07T10:21:16;4.45;;;3.88;;
72275;SDS011;61204;49.980;8.358;2022-12-07T10:29:31;5.43;;;3.22;;
72275;SDS011;61204;49.980;8.358;2022-12-07T10:32:04;5.90;;;3.30;;
72275;SDS011;61204;49.980;8.358;2022-12-07T10:37:57;5.50;;;3.58;;
72275;SDS011;61204;49.980;8.358;2022-12-07T10:43:03;11.73;;;4.53;;
72275;SDS011;61204;49.980;8.358;2022-12-07T10:45:41;5.60;;;4.13;;
72275;SDS011;61204;49.980;8.358;2022-12-07T10:48:58;6.43;;;3.95;;
72275;SDS011;61204;49.980;8.358;2022-12-07T10:55:18;5.55;;;3.17;;
72275;SDS011;61204;49.980;8.358;2022-12-07T11:00:37;6.72;;;2.92;;
72275;SDS011;61204;49.980;8.358;2022-12-07T11:09:22;5.03;;;2.55;;
72275;SDS011;61204;49.980;8.358;2022-12-07T11:15:42;3.55;;;2.13;;
72275;SDS011;61204;49.980;8.358;2022-12-07T11:28:58;4.25;;;2.40;;
72275;SDS011;61204;49.980;8.358;2022-12-07T11:32:14;7.35;;;2.70;;
72275;SDS011;61204;49.980;8.358;2022-12-07T11:35:11;4.97;;;2.00;;
72275;SDS011;61204;49.980;8.358;2022-12-07T11:37:57;6.68;;;1.70;;
72275;SDS011;61204;49.980;8.358;2022-12-07T11:40:36;3.85;;;1.90;;
72275;SDS011;61204;49.980;8.358;2022-12-07T11:46:02;8.32;;;2.38;;
72275;SDS011;61204;49.980;8.358;2022-12-07T11:51:20;6.15;;;2.53;;
72275;SDS011;61204;49.980;8.358;2022-12-07T11:53:49;4.68;;;1.95;;
72275;SDS011;61204;49.980;8.358;2022-12-07T11:56:24;4.97;;;2.07;;
72275;SDS011;61204;49.980;8.358;2022-12-07T11:58:55;4.40;;;2.10;;
72275;SDS011;61204;49.980;8.358;2022-12-07T12:04:07;5.13;;;2.15;;
72275;SDS011;61204;49.980;8.358;2022-12-07T12:06:52;3.67;;;1.95;;
72275;SDS011;61204;49.980;8.358;2022-12-07T12:12:09;4.20;;;1.75;;
72275;SDS011;61204;49.980;8.358;2022-12-07T12:15:02;4.38;;;1.70;;
72275;SDS011;61204;49.980;8.358;2022-12-07T12:18:10;2.70;;;1.55;;
72275;SDS011;61204;49.980;8.358;2022-12-07T12:21:12;5.60;;;1.55;;
72275;SDS011;61204;49.980;8.358;2022-12-07T12:26:29;5.35;;;1.30;;
72275;SDS011;61204;49.980;8.358;2022-12-07T12:29:02;2.88;;;1.08;;
72275;SDS011;61204;49.980;8.358;2022-12-07T12:31:43;3.20;;;2.25;;
72275;SDS011;61204;49.980;8.358;2022-12-07T12:40:41;2.65;;;1.52;;
72275;SDS011;61204;49.980;8.358;2022-12-07T12:42:56;2.53;;;1.25;;
72275;SDS011;61204;49.980;8.358;2022-12-07T12:45:24;4.43;;;1.30;;
72275;SDS011;61204;49.980;8.358;2022-12-07T12:50:31;3.42;;;1.50;;
72275;SDS011;61204;49.980;8.358;2022-12-07T12:53:12;3.17;;;1.55;;
72275;SDS011;61204;49.980;8.358;2022-12-07T12:58:42;2.25;;;1.13;;
72275;SDS011;61204;49.980;8.358;2022-12-07T13:04:00;4.50;;;1.92;;
72275;SDS011;61204;49.980;8.358;2022-12-07T13:06:42;4.07;;;1.33;;
72275;SDS011;61204;49.980;8.358;2022-12-07T13:09:16;4.28;;;1.05;;
72275;SDS011;61204;49.980;8.358;2022-12-07T13:12:00;3.70;;;1.42;;
72275;SDS011;61204;49.980;8.358;2022-12-07T13:14:43;2.65;;;1.15;;
72275;SDS011;61204;49.980;8.358;2022-12-07T13:20:04;2.38;;;0.98;;
72275;SDS011;61204;49.980;8.358;2022-12-07T13:28:14;3.28;;;1.30;;
72275;SDS011;61204;49.980;8.358;2022-12-07T13:30:49;2.83;;;1.13;;
72275;SDS011;61204;49.980;8.358;2022-12-07T13:33:35;2.65;;;1.25;;
72275;SDS011;61204;49.980;8.358;2022-12-07T13:36:01;4.13;;;1.27;;
72275;SDS011;61204;49.980;8.358;2022-12-07T13:38:29;8.27;;;1.27;;
72275;SDS011;61204;49.980;8.358;2022-12-07T13:41:11;4.35;;;1.40;;
72275;SDS011;61204;49.980;8.358;2022-12-07T13:43:44;5.30;;;1.55;;
72275;SDS011;61204;49.980;8.358;2022-12-07T13:46:31;3.70;;;1.57;;
72275;SDS011;61204;49.980;8.358;2022-12-07T13:49:47;2.22;;;1.13;;
72275;SDS011;61204;49.980;8.358;2022-12-07T13:57:25;4.30;;;1.45;;
72275;SDS011;61204;49.980;8.358;2022-12-07T13:59:55;3.13;;;1.30;;
72275;SDS011;61204;49.980;8.358;2022-12-07T14:02:27;3.55;;;1.40;;
72275;SDS011;61204;49.980;8.358;2022-12-07T14:06:02;4.75;;;1.40;;
72275;SDS011;61204;49.980;8.358;2022-12-07T14:10:40;3.23;;;1.47;;
72275;SDS011;61204;49.980;8.358;2022-12-07T14:16:17;3.53;;;1.70;;
72275;SDS011;61204;49.980;8.358;2022-12-07T14:19:03;5.40;;;1.40;;
72275;SDS011;61204;49.980;8.358;2022-12-07T14:22:17;3.25;;;1.50;;
72275;SDS011;61204;49.980;8.358;2022-12-07T14:27:59;3.55;;;1.33;;
72275;SDS011;61204;49.980;8.358;2022-12-07T14:30:27;3.53;;;1.63;;
72275;SDS011;61204;49.980;8.358;2022-12-07T14:33:01;3.00;;;1.80;;
72275;SDS011;61204;49.980;8.358;2022-12-07T14:35:30;3.88;;;1.88;;
72275;SDS011;61204;49.980;8.358;2022-12-07T14:37:57;7.75;;;2.00;;
72275;SDS011;61204;49.980;8.358;2022-12-07T14:40:24;5.53;;;2.30;;
72275;SDS011;61204;49.980;8.358;2022-12-07T14:42:57;6.93;;;2.35;;
72275;SDS011;61204;49.980;8.358;2022-12-07T14:45:34;4.05;;;2.47;;
72275;SDS011;61204;49.980;8.358;2022-12-07T14:48:00;4.97;;;1.98;;
72275;SDS011;61204;49.980;8.358;2022-12-07T14:50:25;5.88;;;2.13;;
72275;SDS011;61204;49.980;8.358;2022-12-07T14:53:10;6.47;;;2.00;;
72275;SDS011;61204;49.980;8.358;2022-12-07T14:55:42;3.88;;;2.05;;
72275;SDS011;61204;49.980;8.358;2022-12-07T14:58:13;3.17;;;1.80;;
72275;SDS011;61204;49.980;8.358;2022-12-07T15:00:42;5.07;;;1.40;;
72275;SDS011;61204;49.980;8.358;2022-12-07T15:03:09;7.03;;;2.20;;
72275;SDS011;61204;49.980;8.358;2022-12-07T15:05:35;3.33;;;1.98;;
72275;SDS011;61204;49.980;8.358;2022-12-07T15:08:02;4.90;;;2.55;;
72275;SDS011;61204;49.980;8.358;2022-12-07T15:10:29;4.50;;;2.70;;
72275;SDS011;61204;49.980;8.358;2022-12-07T15:12:59;6.07;;;3.00;;
72275;SDS011;61204;49.980;8.358;2022-12-07T15:15:47;5.05;;;2.85;;
72275;SDS011;61204;49.980;8.358;2022-12-07T15:18:16;5.35;;;3.03;;
72275;SDS011;61204;49.980;8.358;2022-12-07T15:20:43;5.82;;;3.53;;
72275;SDS011;61204;49.980;8.358;2022-12-07T15:23:11;8.30;;;3.03;;
72275;SDS011;61204;49.980;8.358;2022-12-07T15:25:41;5.03;;;3.10;;
72275;SDS011;61204;49.980;8.358;2022-12-07T15:28:13;6.97;;;3.33;;
72275;SDS011;61204;49.980;8.358;2022-12-07T15:30:40;8.77;;;3.97;;
72275;SDS011;61204;49.980;8.358;2022-12-07T15:33:09;7.28;;;4.28;;
72275;SDS011;61204;49.980;8.358;2022-12-07T15:35:40;6.50;;;2.17;;
72275;SDS011;61204;49.980;8.358;2022-12-07T15:38:09;3.88;;;2.00;;
72275;SDS011;61204;49.980;8.358;2022-12-07T15:40:36;6.47;;;2.05;;
72275;SDS011;61204;49.980;8.358;2022-12-07T15:43:02;4.22;;;1.10;;
72275;SDS011;61204;49.980;8.358;2022-12-07T15:45:29;4.25;;;1.42;;
72275;SDS011;61204;49.980;8.358;2022-12-07T15:47:54;3.45;;;1.40;;
72275;SDS011;61204;49.980;8.358;2022-12-07T15:50:20;5.53;;;1.70;;
72275;SDS011;61204;49.980;8.358;2022-12-07T15:52:47;5.28;;;2.05;;
72275;SDS011;61204;49.980;8.358;2022-12-07T15:55:13;4.80;;;1.88;;
72275;SDS011;61204;49.980;8.358;2022-12-07T15:57:39;4.57;;;1.73;;
72275;SDS011;61204;49.980;8.358;2022-12-07T16:00:06;3.70;;;1.60;;
72275;SDS011;61204;49.980;8.358;2022-12-07T16:02:36;2.92;;;1.65;;
72275;SDS011;61204;49.980;8.358;2022-12-07T16:05:02;6.63;;;2.85;;
72275;SDS011;61204;49.980;8.358;2022-12-07T16:07:29;8.18;;;2.33;;
72275;SDS011;61204;49.980;8.358;2022-12-07T16:09:54;4.13;;;1.60;;
72275;SDS011;61204;49.980;8.358;2022-12-07T16:12:20;2.78;;;1.77;;
72275;SDS011;61204;49.980;8.358;2022-12-07T16:14:46;6.95;;;2.53;;
72275;SDS011;61204;49.980;8.358;2022-12-07T16:17:11;6.50;;;2.00;;
72275;SDS011;61204;49.980;8.358;2022-12-07T16:19:37;3.75;;;1.70;;
72275;SDS011;61204;49.980;8.358;2022-12-07T16:22:04;5.82;;;2.00;;
72275;SDS011;61204;49.980;8.358;2022-12-07T16:24:30;9.45;;;2.63;;
72275;SDS011;61204;49.980;8.358;2022-12-07T16:26:57;3.95;;;1.98;;
72275;SDS011;61204;49.980;8.358;2022-12-07T16:29:22;8.07;;;2.58;;
72275;SDS011;61204;49.980;8.358;2022-12-07T16:31:49;5.22;;;2.67;;
72275;SDS011;61204;49.980;8.358;2022-12-07T16:34:16;7.05;;;2.60;;
72275;SDS011;61204;49.980;8.358;2022-12-07T16:36:44;13.95;;;3.78;;
72275;SDS011;61204;49.980;8.358;2022-12-07T16:39:10;7.82;;;3.13;;
72275;SDS011;61204;49.980;8.358;2022-12-07T16:41:36;11.98;;;4.00;;
72275;SDS011;61204;49.980;8.358;2022-12-07T16:44:02;11.15;;;3.70;;
72275;SDS011;61204;49.980;8.358;2022-12-07T16:46:33;10.82;;;4.13;;
72275;SDS011;61204;49.980;8.358;2022-12-07T16:49:01;11.90;;;3.20;;
72275;SDS011;61204;49.980;8.358;2022-12-07T16:51:28;11.98;;;3.33;;
72275;SDS011;61204;49.980;8.358;2022-12-07T16:53:54;8.07;;;3.50;;
72275;SDS011;61204;49.980;8.358;2022-12-07T16:56:20;8.10;;;3.53;;
72275;SDS011;61204;49.980;8.358;2022-12-07T16:58:45;14.20;;;4.00;;
72275;SDS011;61204;49.980;8.358;2022-12-07T17:01:17;7.25;;;3.13;;
72275;SDS011;61204;49.980;8.358;2022-12-07T17:03:47;10.93;;;3.85;;
72275;SDS011;61204;49.980;8.358;2022-12-07T17:06:21;7.10;;;3.53;;
72275;SDS011;61204;49.980;8.358;2022-12-07T17:08:50;11.23;;;3.33;;
72275;SDS011;61204;49.980;8.358;2022-12-07T17:11:18;14.60;;;3.60;;
72275;SDS011;61204;49.980;8.358;2022-12-07T17:13:49;8.73;;;3.53;;
72275;SDS011;61204;49.980;8.358;2022-12-07T17:16:34;7.00;;;2.80;;